• Join FlightAware (Why Join?)
  • Login
  • US Flag 
04:41PM EDT


 

Airport Tracker/Info


-or-


 

Live Flight TrackerFlight Track Log ✈ UAL527 ✈ 25-Jul-2013 ✈ KORD - KBWI

Flight Track Log - Related Links

Times and Time Zones

All times are in EDT time to prevent confusion due to time zone crossing. See the UAL527 flight status page for this flight to view local times or setup timezone preferences in your user account.

Time Position Orientation Groundspeed Altitude Reporting Facility
EDT Latitude Longitude Course Direction KTS MPH feet Rate Location/Type
08:01AM 41.9333 -87.9000 90° East 164 189 2,500  Level Chicago TRACON
08:02AM 41.9000 -87.8333 124° Southeast 207 238 4,000 1,260 Climbing Chicago TRACON
08:03AM 41.8689 -87.7542 118° Southeast 252 290 5,100 480 Climbing Chicago Center
08:04AM 41.9431 -87.2768 96° East  Level FlightAware Approximate
08:04AM 41.8753 -87.6564 85° East 268 308 5,100  Level Chicago Center
08:05AM 41.9333 -87.1213 90° East  Level FlightAware Approximate
08:05AM 41.9006 -87.5603 71° East 274 315 8,500  Level Chicago Center
08:06AM 41.9333 -86.9651 90° East  Level FlightAware Approximate
08:06AM 41.9125 -87.4269 83° East 300 345 12,300  Level Chicago Center
08:07AM 41.9333 -86.8089 90° East  Level FlightAware Approximate
08:07AM 41.9250 -87.2983 83° East 345 397 14,300  Level Chicago Center
08:08AM 41.9375 -87.1478 84° East 402 463 16,200 2,040 Climbing Chicago Center
08:09AM 41.9472 -86.9906 85° East 421 484 18,600 2,100 Climbing Chicago Center
08:10AM 41.9386 -86.8256 94° East 441 507 20,600 1,980 Climbing Chicago Center
08:11AM 41.9144 -86.6439 100° East 457 526 22,800 1,920 Climbing Chicago Center
08:12AM 41.8925 -86.4700 100° East 468 539 24,600 1,620 Climbing Chicago Center
08:13AM 41.8694 -86.2931 100° East 480 552 26,200 1,500 Climbing Chicago Center
08:14AM 41.8478 -86.1142 99° East 486 559 27,700 1,740 Climbing Chicago Center
08:15AM 41.8192 -85.8994 100° East 488 562 29,800 1,800 Climbing Chicago Center
08:17AM 41.7958 -85.7206 100° East 486 559 31,500 1,560 Climbing Chicago Center
08:18AM 41.7722 -85.5417 100° East 485 558 33,100 1,500 Climbing Chicago Center
08:19AM 41.7494 -85.3603 99° East 481 554 34,600 1,260 Climbing Chicago Center
08:20AM 41.7231 -85.1822 101° East 477 549 35,800 1,200 Climbing Chicago Center
08:21AM 41.6986 -85.0025 100° East 492 566 37,100 840 Climbing Chicago Center
08:22AM 41.6750 -84.8353 101° East 481 554 37,600 720 Climbing Chicago Center
08:23AM 41.6603 -84.6472 96° East 486 559 38,700 660 Climbing Chicago Center
08:24AM 41.6525 -84.4700 93° East 481 554 39,000 120 Climbing Chicago Center
08:25AM 41.6447 -84.2581 93° East 477 549 39,000  Level Chicago Center
08:26AM 41.6350 -84.0794 94° East 481 554 39,000  Level Chicago Center
08:27AM 41.5978 -83.9075 106° East 485 558 39,000  Level Chicago Center
08:28AM 41.5447 -83.7403 113° Southeast 490 564 39,000  Level Chicago Center
08:29AM 41.4781 -83.5322 113° Southeast 488 562 39,000  Level Cleveland Center
08:30AM 41.4258 -83.3692 113° Southeast 478 550 39,000  Level Cleveland Center
08:31AM 41.3753 -83.2064 112° Southeast 478 550 39,000 -60 Level Cleveland Center
08:32AM 41.3250 -83.0386 112° Southeast 473 544 38,900  Descending Cleveland Center
08:33AM 41.2742 -82.8764 113° Southeast 478 550 39,000  Climbing Cleveland Center
08:34AM 41.2231 -82.7172 113° Southeast 478 550 39,000  Level Cleveland Center
08:35AM 41.1717 -82.5528 112° Southeast 478 550 39,000  Level Cleveland Center
08:36AM 41.1200 -82.3914 113° Southeast 478 550 39,000  Level Cleveland Center
08:37AM 41.0725 -82.2358 112° Southeast 478 550 39,000  Level Cleveland Center
08:38AM 41.0225 -82.0831 113° Southeast 475 547 39,000  Level Cleveland Center
08:39AM 40.9722 -81.9225 112° Southeast 475 547 39,000 -360 Level Cleveland Center
08:40AM 40.9178 -81.7675 115° Southeast 470 541 38,300 -540 Descending Cleveland Center
08:41AM 40.8400 -81.6314 127° Southeast 463 533 38,000 -180 Descending Cleveland Center
08:42AM 40.7386 -81.5286 142° Southeast 449 517 38,000  Level Cleveland Center
08:43AM 40.6331 -81.4231 143° Southeast 462 532 38,000  Level Cleveland Center
08:45AM 40.4913 -81.2850 145° Southeast  Level FlightAware Approximate
08:45AM 40.4303 -81.2214 145° Southeast 468 539 38,000  Level Cleveland Center
08:46AM 40.3306 -81.1222 143° Southeast 463 533 37,900 -540 Descending Cleveland Center
08:47AM 40.2644 -80.9831 122° Southeast 444 511 37,000 -480 Descending Cleveland Center
08:48AM 40.2128 -80.8061 111° Southeast 449 517 37,000  Level Cleveland Center
08:49AM 40.1650 -80.6511 112° Southeast 460 529 37,000  Level Cleveland Center
08:50AM 40.1150 -80.4908 112° Southeast 467 537 37,000  Level Cleveland Center
08:51AM 40.0647 -80.3364 113° Southeast 467 537 37,000  Level Cleveland Center
08:52AM 40.0144 -80.1764 112° Southeast 467 537 37,000 -60 Level Cleveland Center
08:53AM 39.9658 -80.0225 112° Southeast 467 537 36,900 -540 Descending Cleveland Center
08:54AM 39.9147 -79.8658 113° Southeast 467 537 36,000 -960 Descending Cleveland Center
08:55AM 39.8658 -79.7122 112° Southeast 467 537 35,000 -1,440 Descending Cleveland Center
08:56AM 39.8144 -79.5561 113° Southeast 467 537 33,200 -2,340 Descending Cleveland Center
08:57AM 39.7650 -79.4056 113° Southeast 456 525 30,400 -2,520 Descending Cleveland Center
08:58AM 39.7089 -79.2303 113° Southeast 445 512 27,400 -2,280 Descending Washington Center
08:59AM 39.6631 -79.0850 112° Southeast 445 512 25,200 -1,560 Descending Washington Center
09:00AM 39.6222 -78.9133 107° East 445 512 24,400 -1,680 Descending Washington Center
09:01AM 39.5886 -78.7611 106° East 445 512 21,900 -2,400 Descending Washington Center
09:02AM 39.5569 -78.6142 106° East 434 499 19,600 -2,280 Descending Washington Center
09:03AM 39.5269 -78.4783 106° East 412 474 17,400 -2,280 Descending Washington Center
09:04AM 39.4947 -78.3428 107° East 399 459 15,100 -1,260 Descending Washington Center
09:05AM 39.4664 -78.2100 105° East 394 453 15,000 -60 Descending Washington Center
09:06AM 39.4547 -78.0725 96° East 382 440 15,000  Level Washington Center
09:07AM 39.4533 -77.9325 91° East 382 440 15,000 -660 Level Washington Center
09:08AM 39.4517 -77.7981 91° East 382 440 13,800 -1,800 Descending Washington Center
09:09AM 39.4500 -77.6636 91° East 382 440 11,400 -1,380 Descending Washington Center
09:10AM 39.4481 -77.5292 91° East 377 434 11,000 -240 Descending Washington Center
09:11AM 39.4458 -77.4003 91° East 366 421 11,000  Level Washington Center
09:12AM 39.4500 -77.3000 87° East 369 425 11,000 -60 Level Potomac TRACON
09:13AM 39.4667 -77.1667 81° East 341 392 10,900 -600 Descending Potomac TRACON
09:14AM 39.4833 -77.0667 78° East 300 345 9,900 -1,500 Descending Potomac TRACON
09:15AM 39.5167 -76.9667 67° East 299 344 8,200 -1,740 Descending Potomac TRACON
09:16AM 39.5333 -76.8667 78° East 297 342 6,500 -1,200 Descending Potomac TRACON
09:17AM 39.5667 -76.7667 67° East 305 351 5,900 -840 Descending Potomac TRACON
09:18AM 39.5167 -76.7000 134° Southeast 282 325 5,000 -480 Descending Potomac TRACON
09:19AM 39.4500 -76.6500 150° Southeast 282 325 5,000 -180 Level Potomac TRACON
09:20AM 39.4000 -76.5833 134° Southeast 260 299 4,700 -540 Descending Potomac TRACON
09:21AM 39.3500 -76.5333 142° Southeast 251 289 4,000 -600 Descending Potomac TRACON
09:22AM 39.2833 -76.5000 159° South 252 290 3,600 -660 Descending Potomac TRACON
09:23AM 39.2167 -76.5000 180° South 238 274 2,700 -840 Descending Potomac TRACON
09:24AM 39.1667 -76.5333 207° Southwest 229 264 2,000 -720 Descending Potomac TRACON